Airport View

Enter AWOS ICAO identifier for current METAR.

ex. KFNL

KMRY 202354Z 34005KT 10SM CLR 22/12 A2993 RMK AO2 SLP146 T02220122 10239 20206 56007

21 Sep 2019 00:30

Phone: 831-642-0241

Other Area AWOS: KSNS - KWVI - KCVH - KE16

TAF KMRY 202321Z 2100/2124 29008KT P6SM SKC FM210300 VRB03KT P6SM SKC FM210800 10003KT P6SM SKC FM212000 29006KT P6SM SKC